createdAt,value
2023-08-29T00:02:32.878Z,12.69
2023-08-29T00:05:05.287Z,12.66
2023-08-29T00:07:39.814Z,12.63
2023-08-29T00:10:15.314Z,12.60
2023-08-29T00:12:47.547Z,12.57
2023-08-29T00:15:22.440Z,12.54
2023-08-29T00:17:54.747Z,12.50
2023-08-29T00:20:27.437Z,12.46
2023-08-29T00:22:59.815Z,12.42
2023-08-29T00:25:32.115Z,12.40
2023-08-29T00:28:13.491Z,12.36
2023-08-29T00:30:51.277Z,12.32
2023-08-29T00:33:23.579Z,12.29
2023-08-29T00:35:56.162Z,12.25
2023-08-29T00:38:28.620Z,12.23
2023-08-29T00:41:01.028Z,12.21
2023-08-29T00:43:33.445Z,12.18
2023-08-29T00:46:10.043Z,12.16
2023-08-29T00:48:42.633Z,12.16
2023-08-29T00:51:15.540Z,12.07
2023-08-29T00:53:48.356Z,12.08
2023-08-29T00:56:20.772Z,12.07
2023-08-29T00:58:54.243Z,12.04
2023-08-29T01:01:29.484Z,11.99
2023-08-29T01:04:02.083Z,11.95
2023-08-29T01:06:35.585Z,11.89
2023-08-29T01:09:08.982Z,11.84
2023-08-29T01:11:51.142Z,11.79
2023-08-29T01:14:33.630Z,11.76
2023-08-29T01:17:17.619Z,11.73
2023-08-29T01:19:56.494Z,11.72
2023-08-29T01:22:40.846Z,11.71
2023-08-29T01:25:23.037Z,11.70
2023-08-29T01:27:59.217Z,11.69
2023-08-29T01:30:33.024Z,11.67
2023-08-29T01:33:06.079Z,11.65
2023-08-29T01:35:38.621Z,11.64
2023-08-29T01:38:12.838Z,11.63
2023-08-29T01:40:45.198Z,11.61
2023-08-29T01:43:20.177Z,11.60
2023-08-29T01:45:52.705Z,11.56
2023-08-29T01:48:26.301Z,11.52
2023-08-29T01:50:59.146Z,11.51
2023-08-29T01:53:32.005Z,11.50
2023-08-29T01:56:05.475Z,11.48
2023-08-29T01:58:42.416Z,11.46
2023-08-29T02:01:22.525Z,11.44
2023-08-29T02:03:56.627Z,11.41
2023-08-29T02:06:29.081Z,11.39
2023-08-29T02:09:01.648Z,11.37
2023-08-29T02:11:34.023Z,11.36
2023-08-29T02:14:14.415Z,11.34
2023-08-29T02:16:46.845Z,11.33
2023-08-29T02:19:19.495Z,11.32
2023-08-29T02:21:51.779Z,11.31
2023-08-29T02:24:24.116Z,11.30
2023-08-29T02:26:56.456Z,11.29
2023-08-29T02:29:31.868Z,11.27
2023-08-29T02:32:04.264Z,11.26
2023-08-29T02:34:36.668Z,11.23
2023-08-29T02:37:09.509Z,11.21
2023-08-29T02:39:43.129Z,11.19
2023-08-29T02:42:15.464Z,11.17
2023-08-29T02:44:50.449Z,11.17
2023-08-29T02:47:22.757Z,11.13
2023-08-29T02:49:55.203Z,11.07
2023-08-29T02:52:27.813Z,11.00
2023-08-29T02:55:00.482Z,10.99
2023-08-29T02:57:32.825Z,10.98
2023-08-29T03:00:09.186Z,10.97
2023-08-29T03:02:41.670Z,10.96
2023-08-29T03:05:14.311Z,10.94
2023-08-29T03:07:46.702Z,10.92
2023-08-29T03:10:19.262Z,10.91
2023-08-29T03:12:51.570Z,10.90
2023-08-29T03:15:26.732Z,10.90
2023-08-29T03:18:00.904Z,10.89
2023-08-29T03:20:33.548Z,10.87
2023-08-29T03:23:05.881Z,10.87
2023-08-29T03:25:38.300Z,10.86
2023-08-29T03:28:11.450Z,10.85
2023-08-29T03:30:47.161Z,10.84
2023-08-29T03:33:19.509Z,10.82
2023-08-29T03:36:01.796Z,10.80
2023-08-29T03:38:34.331Z,10.78
2023-08-29T03:41:07.731Z,10.79
2023-08-29T03:43:41.151Z,10.79
2023-08-29T03:46:16.020Z,10.78
2023-08-29T03:48:48.758Z,10.78
2023-08-29T03:51:21.104Z,10.77
2023-08-29T03:53:53.788Z,10.77
2023-08-29T03:56:26.290Z,10.77
2023-08-29T03:58:59.077Z,10.78
2023-08-29T04:01:34.007Z,10.77
2023-08-29T04:04:06.618Z,10.74
2023-08-29T04:06:39.011Z,10.70
2023-08-29T04:09:11.933Z,10.65
2023-08-29T04:11:44.141Z,10.61
2023-08-29T04:14:16.639Z,10.59
2023-08-29T04:16:51.553Z,10.58
2023-08-29T04:19:23.944Z,10.57
2023-08-29T04:21:56.202Z,10.56
2023-08-29T04:24:29.891Z,10.55
2023-08-29T04:27:02.747Z,10.55
2023-08-29T04:29:35.551Z,10.53
2023-08-29T04:32:10.856Z,10.48
2023-08-29T04:34:43.102Z,10.45
2023-08-29T04:37:16.497Z,10.42
2023-08-29T04:39:49.211Z,10.40
2023-08-29T04:42:21.477Z,10.39
2023-08-29T04:44:55.106Z,10.38
2023-08-29T04:47:30.088Z,10.36
2023-08-29T04:50:02.639Z,10.30
2023-08-29T04:52:35.221Z,10.22
2023-08-29T04:55:08.925Z,10.23
2023-08-29T04:57:41.400Z,10.24
2023-08-29T05:00:14.866Z,10.25
2023-08-29T05:02:49.915Z,10.25
2023-08-29T05:05:22.636Z,10.26
2023-08-29T05:07:54.915Z,10.26
2023-08-29T05:10:28.190Z,10.27
2023-08-29T05:13:00.579Z,10.28
2023-08-29T05:15:32.925Z,10.28
2023-08-29T05:18:11.440Z,10.30
2023-08-29T05:20:43.949Z,10.33
2023-08-29T05:23:16.312Z,10.36
2023-08-29T05:25:48.605Z,10.38
2023-08-29T05:28:21.055Z,10.41
2023-08-29T05:30:53.838Z,10.45
2023-08-29T05:33:28.789Z,10.50
2023-08-29T05:36:01.254Z,10.56
2023-08-29T05:38:33.606Z,10.63
2023-08-29T05:41:05.889Z,10.70
2023-08-29T05:43:38.252Z,10.77
2023-08-29T05:46:10.625Z,10.86
2023-08-29T05:48:45.626Z,10.98
2023-08-29T05:51:18.421Z,11.10
2023-08-29T05:53:50.657Z,11.20
2023-08-29T05:56:22.948Z,11.30
2023-08-29T05:58:55.719Z,11.38
2023-08-29T06:01:30.425Z,11.46
2023-08-29T06:04:05.923Z,11.54
2023-08-29T06:06:41.374Z,11.68
2023-08-29T06:09:14.010Z,11.80
2023-08-29T06:11:46.416Z,11.92
2023-08-29T06:14:18.682Z,12.05
2023-08-29T06:16:50.973Z,12.18
2023-08-29T06:19:27.109Z,12.30
2023-08-29T06:21:59.417Z,12.44
2023-08-29T06:24:31.719Z,12.59
2023-08-29T06:27:03.978Z,12.78
2023-08-29T06:29:37.249Z,12.92
2023-08-29T06:32:10.276Z,13.02
2023-08-29T06:34:45.190Z,13.11
2023-08-29T06:37:17.802Z,13.19
2023-08-29T06:39:50.749Z,13.24
2023-08-29T06:42:23.100Z,13.29
2023-08-29T06:45:01.584Z,13.35
2023-08-29T06:47:33.897Z,13.41
2023-08-29T06:50:10.058Z,13.46
2023-08-29T06:52:42.465Z,13.51
2023-08-29T06:55:14.959Z,13.61
2023-08-29T06:57:47.177Z,13.69
2023-08-29T07:00:24.026Z,13.76
2023-08-29T07:02:56.534Z,13.81
2023-08-29T07:05:32.136Z,13.85
2023-08-29T07:08:05.857Z,13.89
2023-08-29T07:10:38.936Z,13.93
2023-08-29T07:13:11.380Z,13.99
2023-08-29T07:15:46.087Z,14.07
2023-08-29T07:18:18.521Z,14.17
2023-08-29T07:20:56.235Z,14.26
2023-08-29T07:23:29.711Z,14.38
2023-08-29T07:26:05.700Z,14.46
2023-08-29T07:28:38.083Z,14.57
2023-08-29T07:31:10.448Z,14.70
2023-08-29T07:33:42.854Z,14.82
2023-08-29T07:36:17.798Z,14.92
2023-08-29T07:38:50.821Z,15.03
2023-08-29T07:41:23.176Z,15.14
2023-08-29T07:43:55.466Z,15.24
2023-08-29T07:46:28.390Z,15.35
2023-08-29T07:49:02.096Z,15.47
2023-08-29T07:51:37.138Z,15.56
2023-08-29T07:54:10.009Z,15.65
2023-08-29T07:56:42.425Z,15.71
2023-08-29T07:59:15.305Z,15.78
2023-08-29T08:01:49.445Z,15.85
2023-08-29T08:04:21.830Z,15.93
2023-08-29T08:06:56.837Z,16.02
2023-08-29T08:09:29.900Z,16.10
2023-08-29T08:12:05.068Z,16.19
2023-08-29T08:14:37.439Z,16.32
2023-08-29T08:17:10.740Z,16.44
2023-08-29T08:19:43.147Z,16.57
2023-08-29T08:22:18.850Z,16.71
2023-08-29T08:24:51.158Z,16.85
2023-08-29T08:27:23.667Z,16.97
2023-08-29T08:29:56.363Z,17.12
2023-08-29T08:32:28.854Z,17.26
2023-08-29T08:35:01.190Z,17.43
2023-08-29T08:37:37.354Z,17.54
2023-08-29T08:40:11.779Z,17.64
2023-08-29T08:42:45.808Z,17.75
2023-08-29T08:45:19.257Z,17.86
2023-08-29T08:47:52.057Z,17.94
2023-08-29T08:50:24.882Z,18.00
2023-08-29T08:53:03.678Z,18.08
2023-08-29T08:55:39.236Z,18.23
2023-08-29T08:58:11.956Z,18.34
2023-08-29T09:00:44.699Z,18.44
2023-08-29T09:03:18.114Z,18.52
2023-08-29T09:05:51.190Z,18.62
2023-08-29T09:08:27.825Z,18.71
2023-08-29T09:11:04.773Z,18.79
2023-08-29T09:13:37.075Z,18.87
2023-08-29T09:16:09.560Z,18.96
2023-08-29T09:18:42.725Z,19.02
2023-08-29T09:21:22.720Z,19.05
2023-08-29T09:23:58.075Z,19.05
2023-08-29T09:26:36.286Z,19.05
2023-08-29T09:29:21.993Z,19.05
2023-08-29T09:31:54.692Z,19.07
2023-08-29T09:34:32.025Z,19.12
2023-08-29T09:37:08.351Z,19.18
2023-08-29T09:39:43.681Z,19.22
2023-08-29T09:42:18.031Z,19.25
2023-08-29T09:44:53.627Z,19.30
2023-08-29T09:47:28.334Z,19.37
2023-08-29T09:50:01.119Z,19.45
2023-08-29T09:52:34.782Z,19.54
2023-08-29T09:55:16.901Z,19.61
2023-08-29T09:57:50.252Z,19.70
2023-08-29T10:00:24.462Z,19.81
2023-08-29T10:03:02.647Z,19.93
2023-08-29T10:05:39.804Z,20.03
2023-08-29T10:08:20.887Z,20.11
2023-08-29T10:10:58.089Z,20.17
2023-08-29T10:13:31.085Z,20.25
2023-08-29T10:16:07.818Z,20.34
2023-08-29T10:18:41.296Z,20.43
2023-08-29T10:21:16.666Z,20.53
2023-08-29T10:23:50.165Z,20.64
2023-08-29T10:26:27.127Z,20.75
2023-08-29T10:29:01.554Z,20.86
2023-08-29T10:31:34.690Z,20.98
2023-08-29T10:34:08.188Z,21.09
2023-08-29T10:36:44.012Z,21.20
2023-08-29T10:39:19.264Z,21.28
2023-08-29T10:41:59.275Z,21.37
2023-08-29T10:44:45.497Z,21.45
2023-08-29T10:47:28.078Z,21.56
2023-08-29T10:50:06.870Z,21.62
2023-08-29T10:52:43.018Z,21.60
2023-08-29T10:55:26.564Z,21.69
2023-08-29T10:58:02.298Z,21.82
2023-08-29T11:00:58.323Z,21.92
2023-08-29T11:03:51.236Z,22.05
2023-08-29T11:06:26.733Z,22.20
2023-08-29T11:09:22.471Z,22.32
2023-08-29T11:12:10.952Z,22.41
2023-08-29T11:14:59.647Z,22.51
2023-08-29T11:17:33.354Z,22.58
2023-08-29T11:20:08.736Z,22.61
2023-08-29T11:22:42.767Z,22.64
2023-08-29T11:25:15.105Z,22.69
2023-08-29T11:27:47.391Z,22.76
2023-08-29T11:30:34.885Z,22.80
2023-08-29T11:33:15.548Z,22.82
2023-08-29T11:35:48.216Z,22.83
2023-08-29T11:38:20.510Z,22.82
2023-08-29T11:41:09.768Z,22.80
2023-08-29T11:44:12.870Z,22.77
2023-08-29T11:46:42.559Z,22.75
2023-08-29T11:49:18.843Z,22.71
2023-08-29T11:51:51.243Z,22.67
2023-08-29T11:54:45.592Z,22.61
2023-08-29T11:57:19.159Z,22.53
2023-08-29T11:59:53.200Z,22.44
2023-08-29T12:02:28.804Z,22.35
2023-08-29T12:05:02.006Z,22.26
2023-08-29T12:07:37.175Z,22.20
2023-08-29T12:10:15.424Z,22.16
2023-08-29T12:12:48.487Z,22.13
2023-08-29T12:15:30.867Z,22.12
2023-08-29T12:18:26.088Z,22.12
2023-08-29T12:21:21.515Z,22.16
2023-08-29T12:23:53.838Z,22.22
2023-08-29T12:26:26.383Z,22.26
2023-08-29T12:28:59.066Z,22.33
2023-08-29T12:31:31.492Z,22.39
2023-08-29T12:34:06.480Z,22.47
2023-08-29T12:36:38.753Z,22.58
2023-08-29T12:39:14.798Z,22.68
2023-08-29T12:41:48.399Z,22.81
2023-08-29T12:44:20.913Z,23.01
2023-08-29T12:46:53.326Z,23.29
2023-08-29T12:49:28.591Z,23.57
2023-08-29T12:52:01.040Z,23.76
2023-08-29T12:54:34.992Z,24.09
2023-08-29T12:57:07.670Z,24.26
2023-08-29T12:59:40.425Z,24.33
2023-08-29T13:02:12.747Z,24.34
2023-08-29T13:04:47.689Z,24.28
2023-08-29T13:07:20.061Z,24.21
2023-08-29T13:09:53.069Z,24.12
2023-08-29T13:12:25.446Z,24.04
2023-08-29T13:14:58.175Z,24.00
2023-08-29T13:17:31.041Z,23.96
2023-08-29T13:20:06.487Z,23.94
2023-08-29T13:22:38.898Z,23.90
2023-08-29T13:25:12.329Z,23.84
2023-08-29T13:27:44.662Z,23.77
2023-08-29T13:30:18.887Z,23.66
2023-08-29T13:32:51.185Z,23.56
2023-08-29T13:35:26.312Z,23.40
2023-08-29T13:37:58.600Z,23.24
2023-08-29T13:40:31.225Z,23.09
2023-08-29T13:43:03.819Z,22.91
2023-08-29T13:45:39.336Z,22.76
2023-08-29T13:48:11.931Z,22.59
2023-08-29T13:50:47.833Z,22.48
2023-08-29T13:53:20.181Z,22.35
2023-08-29T13:55:54.921Z,22.22
2023-08-29T13:58:27.300Z,22.09
2023-08-29T14:00:59.781Z,21.95
2023-08-29T14:03:38.973Z,21.81
2023-08-29T14:06:14.813Z,21.67
2023-08-29T14:08:49.647Z,21.56
2023-08-29T14:11:22.252Z,21.46
2023-08-29T14:13:54.640Z,21.38
2023-08-29T14:16:27.008Z,21.30
2023-08-29T14:18:59.609Z,21.18
2023-08-29T14:21:34.536Z,21.01
2023-08-29T14:24:08.051Z,20.76
2023-08-29T14:26:40.735Z,20.56
2023-08-29T14:29:13.351Z,20.37
2023-08-29T14:31:45.764Z,20.23
2023-08-29T14:34:18.111Z,20.07
2023-08-29T14:36:53.034Z,19.91
2023-08-29T14:39:27.464Z,19.75
2023-08-29T14:41:59.760Z,19.59
2023-08-29T14:44:32.163Z,19.43
2023-08-29T14:47:04.451Z,19.28
2023-08-29T14:49:37.259Z,19.12
2023-08-29T14:52:14.262Z,18.86
2023-08-29T14:54:46.657Z,18.78
2023-08-29T14:57:18.976Z,18.74
2023-08-29T14:59:51.736Z,18.70
2023-08-29T15:02:24.118Z,18.67
2023-08-29T15:04:56.469Z,18.65
2023-08-29T15:07:31.497Z,18.63
2023-08-29T15:10:04.990Z,18.61
2023-08-29T15:12:37.377Z,18.59
2023-08-29T15:15:10.890Z,18.58
2023-08-29T15:17:43.257Z,18.57
2023-08-29T15:20:18.891Z,18.55
2023-08-29T15:22:53.861Z,18.53
2023-08-29T15:25:26.798Z,18.52
2023-08-29T15:27:59.097Z,18.52
2023-08-29T15:30:31.861Z,18.51
2023-08-29T15:33:04.281Z,18.51
2023-08-29T15:35:36.763Z,18.50
2023-08-29T15:38:11.633Z,18.48
2023-08-29T15:40:49.035Z,18.48
2023-08-29T15:43:21.690Z,18.49
2023-08-29T15:45:54.317Z,18.52
2023-08-29T15:48:26.726Z,18.55
2023-08-29T15:50:59.999Z,18.56
2023-08-29T15:53:35.351Z,18.56
2023-08-29T15:56:08.918Z,18.57
2023-08-29T15:58:41.332Z,18.58
2023-08-29T16:01:14.424Z,18.55
2023-08-29T16:03:46.954Z,18.54
2023-08-29T16:06:19.360Z,18.54
2023-08-29T16:08:54.787Z,18.53
2023-08-29T16:11:27.133Z,18.54
2023-08-29T16:13:59.519Z,18.57
2023-08-29T16:16:31.945Z,18.72
2023-08-29T16:19:08.004Z,18.91
2023-08-29T16:21:40.324Z,19.14
2023-08-29T16:24:16.692Z,19.38
2023-08-29T16:26:49.280Z,19.56
2023-08-29T16:29:21.879Z,19.77
2023-08-29T16:31:54.092Z,20.18
2023-08-29T16:34:26.400Z,20.71
2023-08-29T16:36:58.833Z,21.39
2023-08-29T16:39:34.479Z,21.99
2023-08-29T16:42:07.059Z,22.35
2023-08-29T16:44:39.402Z,22.54
2023-08-29T16:47:11.746Z,22.70
2023-08-29T16:49:44.131Z,22.85
2023-08-29T16:52:16.632Z,22.85
2023-08-29T16:54:51.533Z,22.94
2023-08-29T16:57:23.967Z,23.00
2023-08-29T17:00:02.038Z,23.03
2023-08-29T17:02:34.456Z,23.02
2023-08-29T17:05:07.108Z,22.98
2023-08-29T17:07:40.144Z,22.85
2023-08-29T17:10:16.187Z,22.63
2023-08-29T17:12:48.735Z,22.31
2023-08-29T17:15:21.091Z,22.01
2023-08-29T17:17:53.461Z,21.71
2023-08-29T17:20:25.934Z,21.40
2023-08-29T17:22:58.335Z,21.13
2023-08-29T17:25:34.743Z,20.90
2023-08-29T17:28:07.584Z,20.70
2023-08-29T17:30:40.094Z,20.51
2023-08-29T17:33:12.618Z,20.31
2023-08-29T17:35:45.018Z,20.15
2023-08-29T17:38:17.430Z,19.97
2023-08-29T17:40:52.639Z,19.79
2023-08-29T17:43:25.060Z,19.63
2023-08-29T17:45:58.309Z,19.49
2023-08-29T17:48:30.716Z,19.35
2023-08-29T17:51:04.382Z,19.22
2023-08-29T17:53:36.762Z,19.13
2023-08-29T17:56:11.712Z,19.02
2023-08-29T17:58:44.080Z,18.89
2023-08-29T18:01:16.692Z,18.75
2023-08-29T18:03:49.114Z,18.62
2023-08-29T18:06:25.131Z,18.49
2023-08-29T18:08:57.916Z,18.35
2023-08-29T18:11:34.039Z,18.23
2023-08-29T18:14:07.466Z,18.12
2023-08-29T18:16:39.818Z,18.01
2023-08-29T18:19:12.232Z,17.89
2023-08-29T18:21:44.492Z,17.77
2023-08-29T18:24:17.002Z,17.66
2023-08-29T18:26:51.953Z,17.54
2023-08-29T18:29:25.240Z,17.42
2023-08-29T18:31:57.583Z,17.29
2023-08-29T18:34:29.901Z,17.16
2023-08-29T18:37:02.251Z,17.02
2023-08-29T18:39:34.644Z,16.89
2023-08-29T18:42:10.095Z,16.78
2023-08-29T18:44:42.528Z,16.66
2023-08-29T18:47:14.890Z,16.54
2023-08-29T18:49:47.320Z,16.44
2023-08-29T18:52:20.027Z,16.23
2023-08-29T18:54:52.293Z,16.13
2023-08-29T18:57:27.295Z,16.05
2023-08-29T19:00:00.452Z,15.98
2023-08-29T19:02:32.971Z,15.90
2023-08-29T19:05:05.287Z,15.83
2023-08-29T19:07:37.974Z,15.75
2023-08-29T19:10:12.400Z,15.68
2023-08-29T19:12:49.487Z,15.61
2023-08-29T19:15:21.820Z,15.55
2023-08-29T19:17:54.143Z,15.47
2023-08-29T19:20:26.518Z,15.40
2023-08-29T19:22:58.817Z,15.31
2023-08-29T19:25:31.160Z,15.24
2023-08-29T19:28:06.496Z,15.16
2023-08-29T19:30:39.225Z,15.09
2023-08-29T19:33:15.422Z,15.01
2023-08-29T19:35:47.820Z,14.95
2023-08-29T19:38:20.374Z,14.89
2023-08-29T19:40:53.189Z,14.84
2023-08-29T19:43:28.131Z,14.80
2023-08-29T19:46:00.438Z,14.75
2023-08-29T19:48:34.131Z,14.68
2023-08-29T19:51:06.789Z,14.62
2023-08-29T19:53:39.146Z,14.54
2023-08-29T19:56:11.491Z,14.47
2023-08-29T19:58:46.952Z,14.40
2023-08-29T20:01:19.217Z,14.35
2023-08-29T20:03:51.571Z,14.30
2023-08-29T20:06:26.398Z,14.25
2023-08-29T20:08:59.378Z,14.20
2023-08-29T20:11:31.760Z,14.15
2023-08-29T20:14:06.669Z,14.10
2023-08-29T20:16:39.051Z,14.04
2023-08-29T20:19:11.783Z,14.00
2023-08-29T20:21:44.736Z,13.95
2023-08-29T20:24:17.194Z,13.91
2023-08-29T20:26:49.597Z,13.88
2023-08-29T20:29:25.100Z,13.84
2023-08-29T20:31:57.385Z,13.79
2023-08-29T20:34:29.682Z,13.74
2023-08-29T20:37:02.020Z,13.69
2023-08-29T20:39:36.040Z,13.65
2023-08-29T20:42:09.191Z,13.60
2023-08-29T20:44:44.171Z,13.55
2023-08-29T20:47:16.475Z,13.49
2023-08-29T20:49:49.077Z,13.43
2023-08-29T20:52:21.595Z,13.26
2023-08-29T20:54:53.970Z,13.20
2023-08-29T20:57:26.354Z,13.17
2023-08-29T21:00:03.368Z,13.14
2023-08-29T21:02:36.680Z,13.11
2023-08-29T21:05:10.234Z,13.08
2023-08-29T21:07:42.598Z,13.04
2023-08-29T21:10:17.335Z,13.01
2023-08-29T21:12:49.715Z,12.99
2023-08-29T21:15:25.259Z,12.97
2023-08-29T21:17:57.583Z,12.94
2023-08-29T21:20:30.111Z,12.93
2023-08-29T21:23:02.434Z,12.91
2023-08-29T21:25:35.804Z,12.90
2023-08-29T21:28:09.412Z,12.88
2023-08-29T21:30:46.755Z,12.86
2023-08-29T21:33:19.406Z,12.85
2023-08-29T21:35:52.928Z,12.85
2023-08-29T21:38:26.754Z,12.85
2023-08-29T21:40:59.526Z,12.86
2023-08-29T21:43:31.840Z,12.87
2023-08-29T21:46:10.688Z,12.91
2023-08-29T21:48:43.061Z,12.92
2023-08-29T21:51:22.026Z,12.92
2023-08-29T21:53:54.417Z,12.91
2023-08-29T21:56:27.768Z,12.89
2023-08-29T21:59:00.341Z,12.87
2023-08-29T22:01:35.235Z,12.84
2023-08-29T22:04:08.027Z,12.80
2023-08-29T22:06:40.302Z,12.75
2023-08-29T22:09:12.895Z,12.71
2023-08-29T22:11:45.478Z,12.68
2023-08-29T22:14:19.029Z,12.67
2023-08-29T22:16:53.845Z,12.66
2023-08-29T22:19:26.731Z,12.69
2023-08-29T22:21:59.022Z,12.72
2023-08-29T22:24:31.395Z,12.75
2023-08-29T22:27:03.705Z,12.79
2023-08-29T22:29:36.413Z,12.83
2023-08-29T22:32:12.657Z,12.87
2023-08-29T22:34:46.232Z,12.92
2023-08-29T22:37:18.841Z,12.97
2023-08-29T22:39:53.161Z,13.02
2023-08-29T22:42:26.092Z,13.07
2023-08-29T22:44:58.615Z,13.10
2023-08-29T22:47:33.537Z,13.15
2023-08-29T22:50:06.234Z,13.20
2023-08-29T22:52:40.053Z,13.18
2023-08-29T22:55:14.108Z,13.21
2023-08-29T22:57:46.798Z,13.25
2023-08-29T23:00:21.649Z,13.28
2023-08-29T23:02:56.634Z,13.31
2023-08-29T23:05:28.986Z,13.34
2023-08-29T23:08:02.444Z,13.38
2023-08-29T23:10:35.548Z,13.43
2023-08-29T23:13:08.235Z,13.47
2023-08-29T23:15:40.779Z,13.50
2023-08-29T23:18:15.759Z,13.51
2023-08-29T23:20:48.088Z,13.52
2023-08-29T23:23:21.966Z,13.52
2023-08-29T23:25:59.236Z,13.51
2023-08-29T23:28:32.018Z,13.50
2023-08-29T23:31:05.120Z,13.48
2023-08-29T23:33:54.285Z,13.45
2023-08-29T23:36:27.136Z,13.41
2023-08-29T23:38:59.718Z,13.36
2023-08-29T23:41:32.754Z,13.32
2023-08-29T23:44:05.150Z,13.29
2023-08-29T23:46:37.558Z,13.25
2023-08-29T23:49:12.739Z,13.21
2023-08-29T23:51:45.029Z,13.17
2023-08-29T23:54:18.313Z,13.13
2023-08-29T23:56:50.618Z,13.09
2023-08-29T23:59:23.266Z,13.05
